This is the latest recevied weather packets stored in our database for station/object PA0HHN. If no packets are shown the sender has not sent any weather packets the latest 10 day(s).
| Time | Temp. | Humidity | Pressure | Rain* | Wind** | Luminosity | Snow |
|---|---|---|---|---|---|---|---|
| 1788617702 | 18.89° C | 66% | 1014.1 hPa | - | - | - | - |
| 1788616802 | 18.89° C | 68% | 1014.1 hPa | - | - | - | - |
| 1788615902 | 18.89° C | 71% | 1014 hPa | - | - | - | - |
| 1788615000 | 18.89° C | 70% | 1013.8 hPa | - | - | - | - |
| 1788614102 | 18.89° C | 69% | 1013.6 hPa | - | - | - | - |
| 1788613202 | 18.89° C | 66% | 1013.5 hPa | - | - | - | - |
| 1788612302 | 20° C | 65% | 1013.4 hPa | - | - | - | - |
| 1788611402 | 20° C | 70% | 1013.3 hPa | - | - | - | - |
| 1788610502 | 18.89° C | 70% | 1012.9 hPa | - | - | - | - |
| 1788609600 | 18.89° C | 69% | 1012.7 hPa | - | - | - | - |
| 1788608701 | 20° C | 68% | 1012.5 hPa | - | - | - | - |
| 1788607802 | 18.89° C | 69% | 1012.4 hPa | - | - | - | - |
| 1788606901 | 18.89° C | 72% | 1012.1 hPa | - | - | - | - |
| 1788606001 | 18.89° C | 72% | 1012 hPa | - | - | - | - |
| 1788605100 | 17.22° C | 79% | 1011.9 hPa | - | - | - | - |
| 1788604201 | 18.89° C | 73% | 1011.7 hPa | - | - | - | - |
| 1788603302 | 20° C | 69% | 1011.2 hPa | - | - | - | - |
| 1788602402 | 18.89° C | 72% | 1011.3 hPa | - | - | - | - |
| 1788601500 | 18.89° C | 72% | 1011 hPa | - | - | - | - |
| 1788600602 | 20° C | 72% | 1011 hPa | - | - | - | - |
| 1788599700 | 18.89° C | 74% | 1010.5 hPa | - | - | - | - |
| 1788598802 | 18.89° C | 79% | 1010.5 hPa | - | - | - | - |
| 1788597902 | 17.78° C | 84% | 1010.4 hPa | - | - | - | - |
| 1788597002 | 17.22° C | 88% | 1010.2 hPa | - | - | - | - |
| 1788596102 | 17.22° C | 87% | 1010.1 hPa | - | - | - | - |
* Rain since midnight (hover to see other rain measurements)
** Current wind speed in m/s (hover to see current wind gust speed)